Hovedside
METAR-TAF:

METAR-TAF

Lufthavner :

Bahrain, Bahrain

breddegrad: 26-16N, lengdegrad: 050-39E, høyde over havet: 2 m

Gjeldene værobservasjon

Denne rapporten ble laget for 7 minutter siden, klokken 15:30 UTC
Vind 6 kt fra Øst-nordøst, skiftende mellom Nord og Øst
Temperatur 34°C
Luftfuktighet 67%
Trykk 1004 hPa
Sikt: 7000 m
Skyfri himmel

METAR: OBBI 201530Z 06006KT 010V080 7000 SKC 34/27 Q1004 NOSIG

Tid: 18:37 (15:37 UTC)

Varsel

Varsel gyldig fra 20. klokken 00 UTC til 21. klokken 06 UTC
Vind 5 kt fra skiftende retning
Sikt 10 km eller mer
ingen skyer under 1500 m og ingen bygeskyer
Blir
fra 20. klokken 10 UTC til 20. klokken 12 UTC
Vind 10 kt fra Nord-nordøst
Blir
fra 20. klokken 16 UTC til 20. klokken 18 UTC
Vind 5 kt fra skiftende retning
Sannsynlighet 30% :
Midlertidig
fra 20. klokken 22 UTC til 21. klokken 06 UTC
Sikt: 5000 m
dis

TAF: OBBI 2000/2106 VRB05KT CAVOK BECMG 2010/2012 03010KT BECMG 2016/2018 VRB05KT PROB30 TEMPO 2022/2106 5000 HZ NSC

Værobservasjoner og værvarsel for over 4000 flyplasser (METAR- og TAF-rapporter).

Tilgjengelige stasjoner er representert av de røde og gule prikkene på kartet.

Hold musepekeren over prikken for å se navnet på stasjonen.

Klikk så for å se værobservasjoner og -varsler.

For å forandre kartet kan du klikke på den grønne knappen med svart kryss for å zoome inn, på den grønne knappen med strek for å zoome ut, eller på de grønne pilene for å se tilstøtende kart.


METAR-TAF: